createdAt,value
2023-03-27T05:02:07.237Z,98937.00
2023-03-27T05:04:36.315Z,98941.20
2023-03-27T05:07:05.387Z,98950.60
2023-03-27T05:09:34.058Z,98965.40
2023-03-27T05:12:03.453Z,98975.20
2023-03-27T05:14:32.063Z,98977.20
2023-03-27T05:17:01.096Z,98977.40
2023-03-27T05:19:30.673Z,98989.60
2023-03-27T05:21:59.453Z,98996.20
2023-03-27T05:24:28.853Z,99017.60
2023-03-27T05:26:57.945Z,99009.00
2023-03-27T05:29:27.067Z,99024.20
2023-03-27T05:31:55.618Z,99022.20
2023-03-27T05:34:24.309Z,99031.40
2023-03-27T05:36:53.329Z,99038.20
2023-03-27T05:39:22.828Z,99048.40
2023-03-27T05:41:51.837Z,99054.00
2023-03-27T05:44:20.597Z,99067.80
2023-03-27T05:46:49.280Z,99072.20
2023-03-27T05:49:18.265Z,99079.80
2023-03-27T05:51:47.456Z,99083.80
2023-03-27T05:54:16.250Z,99084.40
2023-03-27T05:56:44.993Z,99098.20
2023-03-27T05:59:13.761Z,99102.20
2023-03-27T06:01:43.242Z,99113.80
2023-03-27T06:04:12.752Z,99121.80
2023-03-27T06:06:42.175Z,99133.40
2023-03-27T06:09:13.136Z,99136.20
2023-03-27T06:11:43.158Z,99140.60
2023-03-27T06:14:11.726Z,99138.60
2023-03-27T06:16:40.681Z,99143.00
2023-03-27T06:19:09.714Z,99144.20
2023-03-27T06:21:39.920Z,99146.80
2023-03-27T06:24:10.685Z,99158.00
2023-03-27T06:26:39.594Z,99158.00
2023-03-27T06:29:09.135Z,99166.20
2023-03-27T06:31:39.224Z,99169.80
2023-03-27T06:34:08.981Z,99179.60
2023-03-27T06:36:37.549Z,99186.00
2023-03-27T06:39:21.186Z,99190.20
2023-03-27T06:41:57.775Z,99192.80
2023-03-27T06:44:26.669Z,99200.60
2023-03-27T06:46:55.258Z,99208.60
2023-03-27T06:49:24.327Z,99210.80
2023-03-27T06:51:53.437Z,99215.00
2023-03-27T06:54:22.531Z,99220.60
2023-03-27T06:56:51.378Z,99219.40
2023-03-27T06:59:20.362Z,99226.20
2023-03-27T07:01:50.395Z,99222.20
2023-03-27T07:04:19.043Z,99224.80
2023-03-27T07:06:49.165Z,99225.00
2023-03-27T07:09:17.763Z,99225.00
2023-03-27T07:11:46.391Z,99225.80
2023-03-27T07:14:15.187Z,99224.60
2023-03-27T07:16:44.022Z,99228.40
2023-03-27T07:19:12.863Z,99242.40
2023-03-27T07:21:42.134Z,99249.00
2023-03-27T07:24:11.979Z,99247.40
2023-03-27T07:26:40.551Z,99245.00
2023-03-27T07:29:11.154Z,99248.40
2023-03-27T07:31:55.914Z,99245.40
2023-03-27T07:34:26.244Z,99249.20
2023-03-27T07:36:57.521Z,99251.20
2023-03-27T07:39:26.517Z,99257.20
2023-03-27T07:41:55.823Z,99261.40
2023-03-27T07:44:25.175Z,99264.80
2023-03-27T07:46:54.934Z,99264.40
2023-03-27T07:49:39.334Z,99267.00
2023-03-27T07:52:10.047Z,99272.60
2023-03-27T07:54:38.918Z,99275.80
2023-03-27T07:57:07.906Z,99275.60
2023-03-27T07:59:37.137Z,99280.40
2023-03-27T08:02:06.105Z,99287.80
2023-03-27T08:04:34.890Z,99289.80
2023-03-27T08:07:03.804Z,99289.80
2023-03-27T08:09:32.775Z,99295.00
2023-03-27T08:12:01.566Z,99298.20
2023-03-27T08:14:30.489Z,99295.20
2023-03-27T08:17:12.437Z,99301.20
2023-03-27T08:19:46.603Z,99310.20
2023-03-27T08:22:15.566Z,99300.20
2023-03-27T08:24:44.855Z,99307.60
2023-03-27T08:27:14.185Z,99320.00
2023-03-27T08:29:43.780Z,99316.20
2023-03-27T08:32:12.972Z,99312.60
2023-03-27T08:34:42.790Z,99315.00
2023-03-27T08:37:11.370Z,99314.00
2023-03-27T08:39:40.264Z,99312.80
2023-03-27T08:42:19.361Z,99321.20
2023-03-27T08:44:53.214Z,99323.40
2023-03-27T08:47:34.422Z,99325.20
2023-03-27T08:50:16.916Z,99322.80
2023-03-27T08:52:47.120Z,99330.80
2023-03-27T08:55:26.355Z,99339.80
2023-03-27T08:57:55.441Z,99332.40
2023-03-27T09:00:35.552Z,99336.80
2023-03-27T09:03:39.310Z,99338.80
2023-03-27T09:06:26.698Z,99342.20
2023-03-27T09:09:32.274Z,99334.40
2023-03-27T09:12:06.884Z,99329.80
2023-03-27T09:14:51.367Z,99336.60
2023-03-27T09:17:39.626Z,99335.20
2023-03-27T09:20:26.332Z,99337.20
2023-03-27T09:23:14.049Z,99344.00
2023-03-27T09:25:51.109Z,99349.20
2023-03-27T09:28:30.510Z,99362.40
2023-03-27T09:31:02.012Z,99365.00
2023-03-27T09:33:31.548Z,99367.00
2023-03-27T09:36:01.009Z,99365.60
2023-03-27T09:38:47.624Z,99368.00
2023-03-27T09:41:30.195Z,99374.80
2023-03-27T09:44:27.969Z,99388.20
2023-03-27T09:47:15.807Z,99380.80
2023-03-27T09:50:15.521Z,99391.20
2023-03-27T09:52:44.162Z,99392.80
2023-03-27T09:55:32.107Z,99403.40
2023-03-27T09:58:30.258Z,99405.20
2023-03-27T10:01:16.188Z,99411.40
2023-03-27T10:03:53.213Z,99420.00
2023-03-27T10:06:39.338Z,99424.80
2023-03-27T10:09:29.427Z,99426.80
2023-03-27T10:12:06.111Z,99431.20
2023-03-27T10:14:47.671Z,99437.00
2023-03-27T10:17:28.182Z,99443.60
2023-03-27T10:20:09.442Z,99438.40
2023-03-27T10:22:52.585Z,99440.80
2023-03-27T10:25:33.544Z,99443.80
2023-03-27T10:28:28.036Z,99441.80
2023-03-27T10:31:36.681Z,99450.00
2023-03-27T10:34:27.152Z,99449.80
2023-03-27T10:36:57.050Z,99440.40
2023-03-27T10:39:36.055Z,99447.80
2023-03-27T10:42:10.219Z,99442.80
2023-03-27T10:44:41.011Z,99446.80
2023-03-27T10:47:23.837Z,99459.80
2023-03-27T10:50:10.794Z,99467.80
2023-03-27T10:53:04.606Z,99464.80
2023-03-27T10:56:02.156Z,99469.20
2023-03-27T10:58:39.003Z,99471.80
2023-03-27T11:01:19.295Z,99471.80
2023-03-27T11:04:02.273Z,99473.00
2023-03-27T11:06:40.632Z,99481.60
2023-03-27T11:09:24.240Z,99476.20
2023-03-27T11:12:08.377Z,99479.00
2023-03-27T11:15:01.941Z,99488.80
2023-03-27T11:17:41.294Z,99487.40
2023-03-27T11:20:26.454Z,99489.20
2023-03-27T11:23:16.128Z,99482.60
2023-03-27T11:25:53.739Z,99490.00
2023-03-27T11:28:46.864Z,99482.20
2023-03-27T11:31:46.696Z,99487.60
2023-03-27T11:34:36.604Z,99484.00
2023-03-27T11:37:50.537Z,99503.00
2023-03-27T11:40:29.567Z,99506.80
2023-03-27T11:42:58.119Z,99510.20
2023-03-27T11:45:38.712Z,99508.20
2023-03-27T11:48:11.239Z,99510.00
2023-03-27T11:50:56.924Z,99518.00
2023-03-27T11:53:55.150Z,99526.60
2023-03-27T11:57:02.943Z,99530.20
2023-03-27T11:59:55.423Z,99524.00
2023-03-27T12:02:49.806Z,99533.00
2023-03-27T12:05:28.644Z,99524.80
2023-03-27T12:08:27.610Z,99526.60
2023-03-27T12:10:59.640Z,99534.20
2023-03-27T12:14:01.068Z,99518.00
2023-03-27T12:16:59.814Z,99515.60
2023-03-27T12:19:53.675Z,99527.20
2023-03-27T12:22:37.653Z,99523.40
2023-03-27T12:25:40.435Z,99523.00
2023-03-27T12:28:41.060Z,99520.60
2023-03-27T12:31:41.674Z,99520.80
2023-03-27T12:34:31.989Z,99522.00
2023-03-27T12:37:02.223Z,99518.60
2023-03-27T12:39:31.553Z,99525.60
2023-03-27T12:42:00.197Z,99530.80
2023-03-27T12:44:32.488Z,99531.60
2023-03-27T12:47:24.943Z,99529.60
2023-03-27T12:50:12.136Z,99534.80
2023-03-27T12:52:46.497Z,99518.60
2023-03-27T12:55:21.464Z,99519.40
2023-03-27T12:57:52.046Z,99522.40
2023-03-27T13:00:25.955Z,99532.80
2023-03-27T13:03:25.854Z,99539.60
2023-03-27T13:06:06.840Z,99547.40
2023-03-27T13:08:52.571Z,99563.40
2023-03-27T13:11:41.469Z,99552.60
2023-03-27T13:14:21.845Z,99554.60
2023-03-27T13:17:29.472Z,99555.20
2023-03-27T13:20:45.170Z,99555.80
2023-03-27T13:23:52.833Z,99559.60
2023-03-27T13:27:12.511Z,99568.00
2023-03-27T13:29:41.935Z,99566.20
2023-03-27T13:32:40.285Z,99570.20
2023-03-27T13:35:21.844Z,99572.40
2023-03-27T13:37:50.466Z,99570.80
2023-03-27T13:40:40.871Z,99575.00
2023-03-27T13:43:30.964Z,99583.00
2023-03-27T13:46:05.531Z,99575.00
2023-03-27T13:49:08.589Z,99573.00
2023-03-27T13:51:47.102Z,99578.60
2023-03-27T13:54:57.358Z,99584.40
2023-03-27T13:57:47.560Z,99599.60
2023-03-27T14:00:38.061Z,99578.80
2023-03-27T14:03:37.636Z,99582.20
2023-03-27T14:06:23.640Z,99590.20
2023-03-27T14:09:18.352Z,99592.60
2023-03-27T14:12:33.917Z,99593.80
2023-03-27T14:16:02.341Z,99605.40
2023-03-27T14:18:52.285Z,99593.20
2023-03-27T14:21:35.493Z,99599.60
2023-03-27T14:24:25.798Z,99604.60
2023-03-27T14:26:57.080Z,99610.00
2023-03-27T14:29:27.075Z,99609.00
2023-03-27T14:32:04.441Z,99615.00
2023-03-27T14:34:51.072Z,99610.80
2023-03-27T14:37:32.463Z,99610.00
2023-03-27T14:40:07.421Z,99621.40
2023-03-27T14:42:36.178Z,99634.40
2023-03-27T14:45:30.338Z,99651.40
2023-03-27T14:48:21.574Z,99649.80
2023-03-27T14:50:58.203Z,99637.80
2023-03-27T14:53:36.911Z,99641.60
2023-03-27T14:56:31.055Z,99643.80
2023-03-27T14:59:03.914Z,99643.20
2023-03-27T15:01:35.535Z,99645.20
2023-03-27T15:04:11.537Z,99656.20
2023-03-27T15:06:42.034Z,99654.80
2023-03-27T15:09:19.804Z,99666.20
2023-03-27T15:11:56.334Z,99668.80
2023-03-27T15:14:29.418Z,99673.40
2023-03-27T15:16:58.609Z,99684.40
2023-03-27T15:19:45.909Z,99678.80
2023-03-27T15:22:35.445Z,99677.40
2023-03-27T15:25:28.918Z,99684.80
2023-03-27T15:28:06.985Z,99686.60
2023-03-27T15:30:51.767Z,99684.60
2023-03-27T15:33:35.522Z,99688.80
2023-03-27T15:36:26.483Z,99687.20
2023-03-27T15:39:00.892Z,99686.00
2023-03-27T15:41:32.898Z,99691.40
2023-03-27T15:44:13.721Z,99703.60
2023-03-27T15:47:02.041Z,99701.20
2023-03-27T15:49:39.112Z,99703.60
2023-03-27T15:52:33.853Z,99709.20
2023-03-27T15:55:04.912Z,99720.20
2023-03-27T15:58:28.820Z,99722.00
2023-03-27T16:01:03.535Z,99728.40
2023-03-27T16:03:50.781Z,99727.40
2023-03-27T16:06:37.898Z,99735.80
2023-03-27T16:09:38.851Z,99738.20
2023-03-27T16:12:12.590Z,99743.40
2023-03-27T16:14:41.258Z,99740.40
2023-03-27T16:17:10.562Z,99748.80
2023-03-27T16:19:49.578Z,99754.60
2023-03-27T16:22:30.768Z,99756.00
2023-03-27T16:25:10.283Z,99763.40
2023-03-27T16:27:49.734Z,99763.80
2023-03-27T16:30:29.878Z,99765.40
2023-03-27T16:33:00.513Z,99770.60
2023-03-27T16:35:34.545Z,99769.40
2023-03-27T16:38:03.716Z,99773.20
2023-03-27T16:40:32.612Z,99781.60
2023-03-27T16:43:02.323Z,99785.80
2023-03-27T16:45:31.333Z,99791.20
2023-03-27T16:48:00.244Z,99796.00
2023-03-27T16:50:31.192Z,99800.80
2023-03-27T16:53:00.363Z,99803.20
2023-03-27T16:55:30.544Z,99808.00
2023-03-27T16:57:59.461Z,99814.00
2023-03-27T17:00:28.658Z,99815.60
2023-03-27T17:02:57.802Z,99826.20
2023-03-27T17:05:26.995Z,99828.00
2023-03-27T17:07:56.420Z,99834.80
2023-03-27T17:10:25.357Z,99847.40
2023-03-27T17:12:55.294Z,99856.20
2023-03-27T17:15:24.478Z,99862.00
2023-03-27T17:17:53.500Z,99862.00
2023-03-27T17:20:22.361Z,99864.20
2023-03-27T17:22:51.340Z,99864.80
2023-03-27T17:25:20.135Z,99867.80
2023-03-27T17:27:49.123Z,99868.60
2023-03-27T17:30:26.867Z,99874.00
2023-03-27T17:33:05.536Z,99876.80
2023-03-27T17:35:34.982Z,99876.00
2023-03-27T17:38:03.893Z,99889.40
2023-03-27T17:40:33.077Z,99886.00
2023-03-27T17:43:02.353Z,99888.60
2023-03-27T17:45:31.899Z,99893.60
2023-03-27T17:48:00.699Z,99896.40
2023-03-27T17:50:29.827Z,99902.80
2023-03-27T17:52:59.062Z,99901.40
2023-03-27T17:55:28.125Z,99909.60
2023-03-27T17:58:08.323Z,99910.00
2023-03-27T18:00:43.014Z,99916.20
2023-03-27T18:03:15.375Z,99918.60
2023-03-27T18:05:48.178Z,99924.60
2023-03-27T18:08:20.213Z,99920.60
2023-03-27T18:10:52.821Z,99926.20
2023-03-27T18:13:22.313Z,99928.40
2023-03-27T18:15:58.752Z,99933.00
2023-03-27T18:18:28.682Z,99934.80
2023-03-27T18:20:57.725Z,99939.20
2023-03-27T18:23:27.470Z,99940.40
2023-03-27T18:25:56.592Z,99949.20
2023-03-27T18:28:26.007Z,99951.00
2023-03-27T18:31:10.920Z,99957.80
2023-03-27T18:33:40.092Z,99960.80
2023-03-27T18:36:11.021Z,99964.00
2023-03-27T18:38:43.092Z,99958.60
2023-03-27T18:41:12.063Z,99959.60
2023-03-27T18:43:40.857Z,99960.40
2023-03-27T18:46:10.961Z,99961.40
2023-03-27T18:48:42.989Z,99963.60
2023-03-27T18:51:12.251Z,99956.20
2023-03-27T18:53:41.230Z,99960.80
2023-03-27T18:56:12.944Z,99959.00
2023-03-27T18:58:42.419Z,99962.20
2023-03-27T19:01:11.815Z,99957.20
2023-03-27T19:03:41.802Z,99958.40
2023-03-27T19:06:15.507Z,99960.40
2023-03-27T19:08:46.064Z,99962.60
2023-03-27T19:11:14.630Z,99971.40
2023-03-27T19:13:43.871Z,99975.20
2023-03-27T19:16:15.208Z,99977.60
2023-03-27T19:18:44.696Z,99991.80
2023-03-27T19:21:13.913Z,99996.60
2023-03-27T19:23:42.985Z,99998.20
2023-03-27T19:26:16.861Z,99997.00
2023-03-27T19:28:48.166Z,100002.80
2023-03-27T19:31:17.987Z,100004.00
2023-03-27T19:33:46.740Z,100000.80
2023-03-27T19:36:15.989Z,99995.20
2023-03-27T19:38:45.131Z,99995.00
2023-03-27T19:41:13.941Z,99997.80
2023-03-27T19:43:42.825Z,99996.20
2023-03-27T19:46:16.197Z,99997.80
2023-03-27T19:48:50.125Z,99999.40
2023-03-27T19:51:19.153Z,100001.60
2023-03-27T19:53:47.702Z,100001.60
2023-03-27T19:56:16.622Z,99999.80
2023-03-27T19:58:47.937Z,99999.40
2023-03-27T20:01:20.109Z,99999.40
2023-03-27T20:03:49.959Z,100002.40
2023-03-27T20:06:19.999Z,100005.60
2023-03-27T20:08:48.924Z,100004.00
2023-03-27T20:11:17.690Z,100002.60
2023-03-27T20:13:55.925Z,100006.40
2023-03-27T20:16:29.736Z,100001.20
2023-03-27T20:19:05.174Z,100004.20
2023-03-27T20:21:39.134Z,100006.60
2023-03-27T20:24:10.681Z,100003.40
2023-03-27T20:26:41.839Z,100005.80
2023-03-27T20:29:22.470Z,100000.60
2023-03-27T20:31:53.277Z,99998.20
2023-03-27T20:34:22.910Z,99993.60
2023-03-27T20:36:55.204Z,99995.20
2023-03-27T20:39:24.207Z,99991.80
2023-03-27T20:41:59.296Z,99990.40
2023-03-27T20:44:37.593Z,99989.60
2023-03-27T20:47:13.712Z,99988.20
2023-03-27T20:49:44.933Z,99985.20
2023-03-27T20:52:19.977Z,99986.40
2023-03-27T20:54:48.847Z,99989.60
2023-03-27T20:57:17.885Z,99988.80
2023-03-27T20:59:48.589Z,99987.40
2023-03-27T21:02:20.280Z,99987.00
2023-03-27T21:04:49.998Z,99982.60
2023-03-27T21:07:19.392Z,99979.40
2023-03-27T21:09:48.172Z,99982.60
2023-03-27T21:12:17.052Z,99980.80
2023-03-27T21:14:45.919Z,99984.20
2023-03-27T21:17:14.600Z,99984.80
2023-03-27T21:19:43.297Z,99984.60
2023-03-27T21:22:12.016Z,99982.00
2023-03-27T21:24:40.994Z,99984.00
2023-03-27T21:27:09.872Z,99986.20
2023-03-27T21:29:38.554Z,99986.60
2023-03-27T21:32:07.592Z,99982.00
2023-03-27T21:34:36.715Z,99979.00
2023-03-27T21:37:05.565Z,99982.40
2023-03-27T21:39:34.740Z,99979.40
2023-03-27T21:42:03.894Z,99978.60
2023-03-27T21:44:32.744Z,99977.60
2023-03-27T21:47:01.825Z,99969.80
2023-03-27T21:49:31.263Z,99976.80
2023-03-27T21:52:00.224Z,99971.60
2023-03-27T21:54:29.303Z,99971.00
2023-03-27T21:56:58.194Z,99966.60
